CheckWX is a tool to help pilots better visualize weather data.  It is not intended as a substitute for an official pre-flight weather briefing.

21:10:19 UTC

LGAV TAF
Eleftherios Venizelos International Airport
Athens, Greece
TAF LGAV 261700Z 2618/2718 21015KT 9999 SCT018 BKN070 PROB30 TEMPO 2618/2712 5000 RA TEMPO 2706/2713 22015G25KT PROB40 TEMPO 2712/2718 5000 RA SCT010 FEW018TCU BKN070

Jan-26@
18:00 UTC

Jan-26 @ 18:00 UTC

Jan-27@
18:00 UTC

Jan-27 @ 18:00 UTC

TAF LGAV 261700Z 2618/2718 21015KT 9999 SCT018 BKN070
Wind
  • 210° at 15 KTS
Cloud Levels
  • Scattered at 1,800' AGL
  • Broken at 7,000' AGL

Jan-26@
18:00 UTC

Jan-26 @ 18:00 UTC

Jan-27@
12:00 UTC

Jan-27 @ 12:00 UTC

PROB30 TEMPO 2618/2712 5000 RA

Temporary - 30% Likelihood

Temporary - 30% Likelihood during this time.

Conditions
Rain

Jan-27@
06:00 UTC

Jan-27 @ 06:00 UTC

Jan-27@
13:00 UTC

Jan-27 @ 13:00 UTC

TEMPO 2706/2713 22015G25KT

Temporary

Temporary Changes expected for less than half the time period

Wind
  • 220° at 15 KTS
  • {Gusting to 25 KTS

Jan-27@
12:00 UTC

Jan-27 @ 12:00 UTC

Jan-27@
18:00 UTC

Jan-27 @ 18:00 UTC

PROB40 TEMPO 2712/2718 5000 RA SCT010 FEW018TCU BKN070

Temporary - 40% Likelihood

Temporary - 40% Likelihood during this time.

Conditions
Rain
Cloud Levels
  • Scattered at 1,000' AGL
  • Few at 1,800' AGL
  • Broken at 7,000' AGL